Skip Navigation Links
NOAA logo - Click to go to the NOAA homepage
NOAA's National Weather Service
Alaska Aviation Weather Unit
  NWS logo - Click to go to the NWS homepage
Left Navbar Graphic     23 AKDT = 07 GMT

   
NOAA is celebrating 200 years of science, service, and stewardship. Visit the NOAA 200th celebration Web site to learn more.
USA.gov is the U.S. Government's official Web portal to all Federal, state and local government Web resources and services.
Facebook
NWS on Facebook

AAWU Home :: Display TAF Add Bookmark
METAR PAWS 240256Z AUTO 28003KT 10SM FEW085 13/M01 A2966 RMK AO2 SLP060
     T01281006 56006 $=

METAR PAWS 240456Z AUTO 00000KT 10SM OVC070 12/00 A2966 RMK AO2
 SLP061 T01170000 $=

METAR PAWS 240556Z AUTO 00000KT 10SM OVC075 11/01 A2966 RMK AO2
 SLP061 T01060006 10133 20106 52000 $=

METAR PAWS 240656Z AUTO 00000KT 10SM OVC070 08/01 A2967 RMK AO2
 SLP061 T00780011 $=


NOAA's National Weather Service
Alaska Aviation Weather Unit
6930 Sand Lake Road
Anchorage, AK 99502-1845
Disclaimer
Credits
Glossary
Privacy Policy
About Us
Career Opportunities
Contact AAWU Internet Services Site last modified: April, 17th 2012